Terminal Aerodrome Forecast
Issued by NWS

Home | Current Version | Previous Version | Text Only | Print | Product List | Glossary On
Versions: 1 2 3 4 5 6 7 8 9 10 11 12 13 14 15 16
000
FTUS45 KRIW 191729
TAFJAC
TAF
KJAC 191729Z 1918/2018 VRB04KT 3SM -SN BR OVC007
      TEMPO 1918/1919 6SM BR SCT007
     FM191900 VRB06KT P6SM FEW010 SCT200
     FM200500 20006KT P6SM VCFG SCT012 BKN200
     FM201300 19008KT P6SM BKN040 BKN160
      AMD LTD TO CLD VIS AND WIND=

USA.gov is the U.S. government's official web portal to all federal, state and local government web resources and services.